Time;durP1;ratioP1;P1;durP2;ratioP2;P2;SDS_P1;SDS_P2;PMS_P1;PMS_P2;Temp;Humidity;BMP_temperature;BMP_pressure;BME280_temperature;BME280_humidity;BME280_pressure;Samples;Min_cycle;Max_cycle;Signal;HPM_P1;HPM_P2
2022/05/05 00:00:14;;;;;;;9.73;3.47;;;11.50;99.90;;;;;;5016536;28;20864;-74
2022/05/05 00:02:40;;;;;;;12.53;3.03;;;11.40;99.90;;;;;;4993759;28;21102;-74
2022/05/05 00:05:09;;;;;;;4.93;2.80;;;11.70;99.90;;;;;;4987107;28;20819;-75
2022/05/05 00:07:36;;;;;;;5.50;3.10;;;11.90;99.90;;;;;;5001562;28;20447;-75
2022/05/05 00:14:23;;;;;;;8.53;4.73;;;12.20;99.90;;;;;;4994529;28;20742;-75
2022/05/05 00:15:33;;;;;;;4.67;2.73;;;12.50;99.90;;;;;;4992777;28;20452;-73
2022/05/05 00:18:00;;;;;;;3.47;3.17;;;12.40;99.90;;;;;;4993210;28;20458;-75
2022/05/05 00:20:28;;;;;;;4.30;3.10;;;12.30;99.90;;;;;;4992021;28;20432;-74
2022/05/05 00:22:55;;;;;;;4.33;2.60;;;12.40;99.90;;;;;;4999412;28;20905;-73
2022/05/05 00:25:22;;;;;;;3.80;2.47;;;12.40;99.90;;;;;;5001017;28;20498;-75
2022/05/05 00:27:49;;;;;;;7.93;2.43;;;12.50;99.90;;;;;;4996019;28;20638;-74
2022/05/05 00:30:15;;;;;;;9.93;3.03;;;12.50;99.90;;;;;;4976391;28;20567;-72
2022/05/05 00:32:42;;;;;;;4.03;2.87;;;12.50;99.90;;;;;;4991818;28;20564;-74
2022/05/05 00:35:09;;;;;;;4.33;3.13;;;12.50;99.90;;;;;;4992182;28;20465;-73
2022/05/05 00:37:37;;;;;;;5.87;2.97;;;12.50;99.90;;;;;;4991528;28;20485;-73
2022/05/05 00:40:04;;;;;;;6.17;3.00;;;12.30;99.90;;;;;;4988506;28;20523;-73
2022/05/05 00:42:31;;;;;;;2.43;2.13;;;12.40;99.90;;;;;;4993708;28;21269;-74
2022/05/05 00:45:00;;;;;;;6.37;3.37;;;12.60;99.90;;;;;;4998204;28;20858;-74
2022/05/05 00:47:27;;;;;;;6.30;3.33;;;12.60;99.90;;;;;;4984873;28;20518;-73
2022/05/05 00:49:53;;;;;;;11.03;3.50;;;12.70;99.90;;;;;;4992208;28;20845;-73
2022/05/05 00:52:20;;;;;;;3.90;2.67;;;12.80;99.90;;;;;;4988850;28;20519;-74
2022/05/05 00:54:48;;;;;;;5.17;3.00;;;12.90;99.90;;;;;;4990746;28;20527;-74
2022/05/05 00:57:15;;;;;;;3.23;2.93;;;12.90;99.90;;;;;;4987811;28;20857;-74
2022/05/05 00:59:44;;;;;;;10.80;4.27;;;13.00;99.90;;;;;;4987279;28;20447;-74
2022/05/05 01:02:10;;;;;;;7.53;3.00;;;13.00;99.90;;;;;;4991999;28;20496;-74
2022/05/05 01:04:38;;;;;;;3.40;2.80;;;13.10;99.90;;;;;;4984346;28;20710;-73
2022/05/05 01:07:08;;;;;;;8.97;4.20;;;13.10;99.90;;;;;;4994945;28;20549;-74
2022/05/05 01:09:36;;;;;;;3.87;2.90;;;13.10;99.90;;;;;;4994386;28;20889;-75
2022/05/05 01:12:04;;;;;;;5.50;3.10;;;13.00;99.90;;;;;;4999160;28;21285;-73
2022/05/05 01:14:31;;;;;;;3.97;2.90;;;13.00;99.90;;;;;;4994462;28;20536;-73
2022/05/05 01:16:59;;;;;;;6.93;2.93;;;13.10;99.90;;;;;;4990349;28;20819;-74
2022/05/05 01:19:26;;;;;;;12.23;4.67;;;13.00;99.90;;;;;;4999797;28;20820;-74
2022/05/05 01:21:54;;;;;;;6.40;3.30;;;12.90;99.90;;;;;;4981829;28;20508;-73
2022/05/05 01:28:10;;;;;;;7.13;2.90;;;12.70;99.90;;;;;;4991346;28;21332;-74
2022/05/05 01:29:55;;;;;;;7.10;3.30;;;12.70;99.90;;;;;;4993572;28;20427;-74
2022/05/05 01:32:22;;;;;;;11.40;3.60;;;12.80;99.90;;;;;;4990493;28;20490;-74
2022/05/05 01:34:49;;;;;;;9.00;3.93;;;12.80;99.90;;;;;;4992417;28;20470;-74
2022/05/05 01:37:17;;;;;;;4.73;2.90;;;12.80;99.90;;;;;;4991517;28;20447;-74
2022/05/05 01:39:44;;;;;;;10.30;4.30;;;12.80;99.90;;;;;;4992552;28;20989;-74
2022/05/05 01:42:10;;;;;;;5.07;4.43;;;12.50;99.90;;;;;;4997970;28;20549;-74
2022/05/05 01:44:37;;;;;;;5.60;3.43;;;12.30;99.90;;;;;;4984920;28;20428;-74
2022/05/05 01:47:04;;;;;;;2.63;2.10;;;12.40;99.90;;;;;;4993262;28;21109;-74
2022/05/05 01:49:31;;;;;;;8.40;3.17;;;12.50;99.90;;;;;;4994409;28;20481;-74
2022/05/05 01:51:58;;;;;;;5.27;3.23;;;12.70;99.90;;;;;;4998422;28;20488;-73
2022/05/05 01:54:26;;;;;;;4.27;3.20;;;12.80;99.90;;;;;;4995645;28;20925;-74
2022/05/05 01:56:55;;;;;;;3.37;2.90;;;12.70;99.90;;;;;;4996980;28;20440;-73
2022/05/05 01:59:22;;;;;;;7.10;3.40;;;12.60;99.90;;;;;;4992875;28;21284;-73
2022/05/05 02:01:48;;;;;;;4.87;3.23;;;12.20;99.90;;;;;;4999377;28;20466;-74
2022/05/05 02:04:15;;;;;;;14.20;4.73;;;11.90;99.90;;;;;;4998894;28;21199;-72
2022/05/05 02:06:41;;;;;;;7.30;4.60;;;11.80;99.90;;;;;;4999496;28;20484;-73
2022/05/05 02:09:08;;;;;;;4.50;3.23;;;12.00;99.90;;;;;;4998569;28;20964;-74
2022/05/05 02:11:41;;;;;;;5.10;3.40;;;12.10;99.90;;;;;;4992544;28;20491;-72
2022/05/05 02:14:08;;;;;;;4.80;4.27;;;12.10;99.90;;;;;;4987852;28;20893;-73
2022/05/05 02:16:34;;;;;;;7.80;3.07;;;12.10;99.90;;;;;;4997729;28;20457;-74
2022/05/05 02:19:03;;;;;;;5.67;3.80;;;12.30;99.90;;;;;;4986999;28;20447;-74
2022/05/05 02:21:30;;;;;;;7.30;3.53;;;12.30;99.90;;;;;;4995686;28;20448;-73
2022/05/05 02:23:56;;;;;;;5.00;3.80;;;12.20;99.90;;;;;;4995070;28;20698;-73
2022/05/05 02:26:23;;;;;;;8.60;3.10;;;12.20;99.90;;;;;;4997589;28;20810;-73
2022/05/05 02:28:51;;;;;;;5.73;3.80;;;12.10;99.90;;;;;;4994139;28;20519;-72
2022/05/05 02:31:18;;;;;;;8.73;3.53;;;11.70;99.90;;;;;;4990652;28;20805;-73
2022/05/05 02:33:44;;;;;;;3.80;3.37;;;11.70;99.90;;;;;;5001320;28;20623;-74
2022/05/05 02:39:10;;;;;;;16.50;5.47;;;11.90;99.90;;;;;;4954442;28;20934;-74
2022/05/05 02:41:37;;;;;;;38.40;5.83;;;12.00;99.90;;;;;;4945121;28;20483;-74
2022/05/05 02:44:08;;;;;;;24.37;5.27;;;11.90;99.90;;;;;;4974019;28;20962;-72
2022/05/05 02:46:34;;;;;;;31.30;5.60;;;12.00;99.90;;;;;;5003790;28;20835;-73
2022/05/05 02:49:01;;;;;;;9.33;4.30;;;12.00;99.90;;;;;;4996915;28;20547;-73
2022/05/05 02:51:28;;;;;;;15.33;4.60;;;12.10;99.90;;;;;;4995817;28;20457;-73
2022/05/05 02:56:39;;;;;;;7.67;3.60;;;12.20;99.90;;;;;;4995139;28;20422;-73
2022/05/05 02:59:07;;;;;;;10.23;3.70;;;12.20;99.90;;;;;;4996291;28;20695;-71
2022/05/05 03:01:34;;;;;;;22.13;4.73;;;12.20;99.90;;;;;;4992237;28;20843;-72
2022/05/05 03:04:01;;;;;;;15.30;4.53;;;12.20;99.90;;;;;;4983083;28;20974;-73
2022/05/05 03:06:27;;;;;;;10.10;4.03;;;12.30;99.90;;;;;;4984583;28;21784;-73
2022/05/05 03:08:55;;;;;;;6.00;3.53;;;12.20;99.90;;;;;;4985176;28;20461;-71
2022/05/05 03:11:21;;;;;;;10.77;4.20;;;12.10;99.90;;;;;;4983889;28;20545;-74
2022/05/05 03:13:48;;;;;;;19.07;5.30;;;12.10;99.90;;;;;;4976514;28;20484;-74
2022/05/05 03:16:16;;;;;;;12.50;4.30;;;12.10;99.90;;;;;;4993364;28;20523;-73
2022/05/05 03:18:45;;;;;;;11.70;4.80;;;12.10;99.90;;;;;;4985288;28;20454;-73
2022/05/05 03:21:12;;;;;;;3.97;3.57;;;12.00;99.90;;;;;;4993239;28;20432;-72
2022/05/05 03:23:39;;;;;;;7.50;2.90;;;12.00;99.90;;;;;;4997384;28;20462;-71
2022/05/05 03:26:05;;;;;;;6.63;3.20;;;12.10;99.90;;;;;;4987781;28;20539;-73
2022/05/05 03:28:32;;;;;;;8.03;4.00;;;12.00;99.90;;;;;;4996983;28;20462;-73
2022/05/05 03:30:59;;;;;;;16.40;3.87;;;11.90;99.90;;;;;;4991301;28;20500;-72
2022/05/05 03:33:27;;;;;;;9.70;5.03;;;11.70;99.90;;;;;;4989680;28;20481;-73
2022/05/05 03:35:54;;;;;;;10.67;4.20;;;11.60;99.90;;;;;;4993942;28;20912;-73
2022/05/05 03:38:21;;;;;;;13.27;4.23;;;11.70;99.90;;;;;;4993673;28;20466;-73
2022/05/05 03:40:48;;;;;;;8.07;3.90;;;11.50;99.90;;;;;;4996574;28;20487;-71
2022/05/05 03:43:14;;;;;;;34.97;5.60;;;11.40;99.90;;;;;;4993250;28;21106;-73
2022/05/05 03:45:41;;;;;;;47.23;6.70;;;11.50;99.90;;;;;;4984043;28;20435;-73
2022/05/05 03:48:08;;;;;;;17.03;6.70;;;11.50;99.90;;;;;;4991543;28;20460;-73
2022/05/05 03:50:36;;;;;;;25.17;5.10;;;11.50;99.90;;;;;;4987546;28;20759;-74
2022/05/05 03:53:03;;;;;;;18.93;4.60;;;11.50;99.90;;;;;;4990852;28;20510;-71
2022/05/05 03:55:30;;;;;;;22.00;5.00;;;11.40;99.90;;;;;;4992264;28;20490;-74
2022/05/05 03:57:57;;;;;;;4.90;4.27;;;11.30;99.90;;;;;;4998459;28;20510;-73
2022/05/05 04:00:24;;;;;;;10.93;4.00;;;11.30;99.90;;;;;;4991756;28;20953;-72
2022/05/05 04:05:33;;;;;;;16.17;4.00;;;11.30;99.90;;;;;;4987188;28;20461;-74
2022/05/05 04:08:01;;;;;;;18.20;5.90;;;11.30;99.90;;;;;;4994625;28;20440;-74
2022/05/05 04:10:27;;;;;;;10.37;4.60;;;11.30;99.90;;;;;;4985518;28;20447;-73
2022/05/05 04:12:55;;;;;;;12.47;5.10;;;11.20;99.90;;;;;;4988922;28;20527;-74
2022/05/05 04:15:21;;;;;;;14.10;4.87;;;11.10;99.90;;;;;;4987378;28;20829;-72
2022/05/05 04:17:48;;;;;;;14.50;4.10;;;11.00;99.90;;;;;;4981891;28;20463;-74
2022/05/05 04:20:16;;;;;;;10.90;5.00;;;10.80;99.90;;;;;;4992389;28;20434;-74
2022/05/05 04:22:43;;;;;;;6.70;4.93;;;10.60;99.90;;;;;;5000276;28;21379;-73
2022/05/05 04:25:12;;;;;;;11.60;4.30;;;10.80;99.90;;;;;;4986900;28;20975;-74
2022/05/05 04:27:40;;;;;;;8.93;4.77;;;10.80;99.90;;;;;;4984261;28;20436;-74
2022/05/05 04:30:09;;;;;;;9.70;5.70;;;10.80;99.90;;;;;;4996760;28;20438;-73
2022/05/05 04:32:36;;;;;;;11.40;4.30;;;10.90;99.90;;;;;;4993217;28;20465;-74
2022/05/05 04:35:04;;;;;;;7.20;4.20;;;10.70;99.90;;;;;;4993006;28;20449;-74
2022/05/05 04:37:30;;;;;;;11.33;4.27;;;10.70;99.90;;;;;;4987927;28;20461;-72
2022/05/05 04:39:57;;;;;;;6.50;4.73;;;10.60;99.90;;;;;;4994961;28;20436;-73
2022/05/05 04:42:26;;;;;;;14.23;3.80;;;10.40;99.90;;;;;;5000189;28;20971;-72
2022/05/05 04:44:52;;;;;;;6.70;3.73;;;10.40;99.90;;;;;;4985424;28;20441;-75
2022/05/05 04:47:19;;;;;;;15.60;4.90;;;10.50;99.90;;;;;;4990194;28;21003;-74
2022/05/05 04:49:46;;;;;;;9.43;5.10;;;10.60;99.90;;;;;;4999700;28;20440;-72
2022/05/05 04:52:13;;;;;;;29.57;8.03;;;10.70;99.90;;;;;;5001282;28;20489;-74
2022/05/05 04:54:39;;;;;;;28.97;6.60;;;10.80;99.90;;;;;;4996498;28;20454;-73
2022/05/05 04:57:07;;;;;;;40.00;6.60;;;10.90;99.90;;;;;;4993951;28;20508;-74
2022/05/05 04:59:34;;;;;;;15.23;6.63;;;11.00;99.90;;;;;;4981499;28;20457;-75
2022/05/05 05:02:02;;;;;;;23.73;5.70;;;11.00;99.90;;;;;;4987866;28;20585;-72
2022/05/05 05:04:29;;;;;;;26.03;7.00;;;11.20;99.90;;;;;;4991110;28;20502;-73
2022/05/05 05:06:56;;;;;;;31.77;8.40;;;11.30;99.90;;;;;;4997690;28;20435;-74
2022/05/05 05:09:22;;;;;;;22.87;6.83;;;11.50;99.90;;;;;;4999106;28;20560;-72
2022/05/05 05:11:49;;;;;;;31.63;6.93;;;11.70;99.90;;;;;;5006289;28;20456;-72
2022/05/05 05:14:15;;;;;;;15.70;6.40;;;11.80;99.90;;;;;;5004473;28;20441;-73
2022/05/05 05:16:43;;;;;;;17.13;6.47;;;12.10;99.90;;;;;;5005893;28;20530;-72
2022/05/05 05:19:10;;;;;;;15.27;5.27;;;12.30;99.90;;;;;;5002038;28;20521;-72
2022/05/05 05:21:37;;;;;;;17.00;6.53;;;12.50;99.90;;;;;;4989098;28;20455;-72
2022/05/05 05:24:04;;;;;;;5.17;4.33;;;12.90;99.90;;;;;;4994432;28;20460;-74
2022/05/05 05:26:31;;;;;;;10.97;5.07;;;12.90;99.90;;;;;;5003508;28;20440;-73
2022/05/05 05:28:58;;;;;;;7.00;4.67;;;13.10;99.90;;;;;;5015676;28;20474;-72
2022/05/05 05:31:24;;;;;;;4.70;3.40;;;13.20;99.90;;;;;;5005661;28;20482;-74
2022/05/05 05:33:52;;;;;;;10.87;5.30;;;13.70;99.90;;;;;;5006143;28;20488;-74
2022/05/05 05:36:20;;;;;;;7.20;4.73;;;13.80;99.90;;;;;;4996058;28;21062;-73
2022/05/05 05:38:47;;;;;;;7.63;4.53;;;14.00;99.90;;;;;;4998193;28;20440;-73
2022/05/05 05:41:13;;;;;;;6.07;4.03;;;13.60;99.90;;;;;;4994398;28;20523;-73
2022/05/05 05:43:40;;;;;;;13.47;6.37;;;13.80;99.90;;;;;;5008728;28;20545;-72
2022/05/05 05:46:07;;;;;;;12.00;5.37;;;14.00;99.90;;;;;;5006992;28;20583;-70
2022/05/05 05:48:34;;;;;;;11.63;5.03;;;14.60;99.90;;;;;;5006159;28;20464;-71
2022/05/05 05:51:06;;;;;;;10.83;5.47;;;14.90;99.90;;;;;;5003428;28;20527;-71
2022/05/05 05:53:33;;;;;;;19.13;6.20;;;15.00;99.90;;;;;;5022732;22;20501;-71
2022/05/05 05:56:00;;;;;;;13.20;5.90;;;14.80;99.90;;;;;;5027008;28;20553;-71
2022/05/05 05:58:26;;;;;;;7.80;5.47;;;14.90;99.90;;;;;;5017813;28;21020;-71
2022/05/05 06:00:53;;;;;;;13.30;6.07;;;15.30;99.90;;;;;;5010107;28;20902;-70
2022/05/05 06:06:05;;;;;;;10.03;6.00;;;15.90;99.90;;;;;;5014574;28;20531;-72
2022/05/05 06:08:32;;;;;;;19.27;5.03;;;16.30;99.90;;;;;;5020755;28;20486;-71
2022/05/05 06:10:59;;;;;;;11.10;5.53;;;16.60;99.90;;;;;;5029416;28;20467;-71
2022/05/05 06:13:26;;;;;;;13.03;5.07;;;17.00;99.90;;;;;;5014567;28;20562;-73
2022/05/05 06:15:53;;;;;;;7.93;4.40;;;17.20;99.90;;;;;;4994057;28;20455;-73
2022/05/05 06:18:20;;;;;;;8.40;5.90;;;17.50;99.90;;;;;;5002453;28;20461;-72
2022/05/05 06:20:47;;;;;;;8.03;5.23;;;17.50;99.90;;;;;;5024190;28;21209;-72
2022/05/05 06:23:16;;;;;;;11.23;5.70;;;17.10;99.90;;;;;;5025079;28;20483;-72
2022/05/05 06:25:42;;;;;;;9.30;6.10;;;17.10;99.90;;;;;;5024362;28;20463;-72
2022/05/05 06:28:09;;;;;;;9.27;5.27;;;17.30;99.90;;;;;;5030607;28;21049;-73
2022/05/05 06:30:36;;;;;;;8.37;5.00;;;17.50;99.90;;;;;;5032508;28;20465;-73
2022/05/05 06:33:02;;;;;;;10.70;6.50;;;17.70;99.90;;;;;;5022917;28;20480;-73
2022/05/05 06:35:29;;;;;;;14.40;8.20;;;18.20;99.90;;;;;;5026790;28;20478;-72
2022/05/05 06:37:56;;;;;;;8.63;4.87;;;18.80;99.90;;;;;;5031753;28;20464;-71
2022/05/05 06:40:24;;;;;;;9.33;4.83;;;18.80;99.90;;;;;;5036368;28;20490;-72
2022/05/05 06:42:51;;;;;;;9.67;5.70;;;19.30;99.90;;;;;;5037106;28;20490;-72
2022/05/05 06:45:18;;;;;;;11.33;6.10;;;19.50;99.90;;;;;;5037189;28;20844;-71
2022/05/05 06:47:44;;;;;;;7.90;5.27;;;19.40;99.90;;;;;;5035234;28;20468;-73
2022/05/05 06:50:11;;;;;;;7.90;5.83;;;19.80;99.90;;;;;;5025766;28;20862;-71
2022/05/05 06:52:38;;;;;;;7.13;5.10;;;19.80;99.90;;;;;;5029975;28;20487;-71
2022/05/05 06:55:06;;;;;;;8.40;5.53;;;19.60;99.90;;;;;;5032562;28;20530;-72
2022/05/05 06:57:34;;;;;;;9.23;5.10;;;19.60;99.90;;;;;;5020296;28;20488;-72
2022/05/05 07:00:01;;;;;;;9.07;5.27;;;20.40;99.90;;;;;;5027347;28;20467;-72
2022/05/05 07:02:27;;;;;;;12.27;6.40;;;21.00;98.60;;;;;;5027983;28;20499;-72
2022/05/05 07:07:38;;;;;;;5.90;4.30;;;21.20;98.70;;;;;;5035580;28;20448;-73
2022/05/05 07:12:51;;;;;;;8.20;5.20;;;21.10;97.50;;;;;;5036670;28;20592;-72
2022/05/05 07:15:18;;;;;;;14.07;6.17;;;20.90;97.40;;;;;;5029888;28;20924;-74
2022/05/05 07:17:46;;;;;;;6.80;4.97;;;21.10;95.80;;;;;;5023856;28;20516;-69
2022/05/05 07:20:12;;;;;;;10.83;5.60;;;21.60;97.30;;;;;;5026663;28;20825;-70
2022/05/05 07:22:41;;;;;;;5.37;4.83;;;21.40;93.50;;;;;;5029607;28;20453;-69
2022/05/05 07:25:09;;;;;;;8.20;4.00;;;21.60;93.30;;;;;;5030270;28;20590;-69
2022/05/05 07:27:36;;;;;;;6.13;5.03;;;21.20;93.00;;;;;;5031021;28;20465;-70
2022/05/05 07:30:04;;;;;;;10.10;4.70;;;21.50;92.30;;;;;;5036335;28;20458;-70
2022/05/05 07:32:31;;;;;;;7.10;4.20;;;20.70;91.20;;;;;;5029732;28;20453;-70
2022/05/05 07:34:57;;;;;;;6.50;4.60;;;20.00;93.10;;;;;;5026153;28;20889;-69
2022/05/05 07:37:24;;;;;;;10.97;6.30;;;20.30;94.60;;;;;;5034869;28;20465;-70
2022/05/05 07:39:51;;;;;;;6.80;5.20;;;20.60;93.90;;;;;;5031709;28;21211;-70
2022/05/05 07:42:17;;;;;;;13.93;6.77;;;20.60;94.00;;;;;;5030448;28;20454;-70
2022/05/05 07:44:44;;;;;;;11.00;5.80;;;21.00;94.30;;;;;;5038060;28;20480;-70
2022/05/05 07:47:12;;;;;;;11.53;4.90;;;21.10;93.00;;;;;;5030542;28;20989;-70
2022/05/05 07:49:38;;;;;;;15.53;6.13;;;20.50;92.10;;;;;;5034474;28;20480;-70
2022/05/05 07:52:05;;;;;;;11.27;5.13;;;20.00;93.50;;;;;;5033430;28;20515;-70
2022/05/05 07:54:36;;;;;;;9.10;4.33;;;20.00;94.20;;;;;;5032878;28;21021;-70
2022/05/05 07:57:03;;;;;;;9.20;4.83;;;20.20;93.50;;;;;;5034547;28;20491;-70
2022/05/05 07:59:30;;;;;;;16.00;5.90;;;20.20;93.10;;;;;;5037956;28;20457;-69
2022/05/05 08:01:58;;;;;;;8.83;5.17;;;20.00;93.20;;;;;;5026478;28;20504;-70
2022/05/05 08:04:26;;;;;;;9.23;5.13;;;20.50;93.20;;;;;;5029048;28;20587;-70
2022/05/05 08:06:52;;;;;;;7.33;5.07;;;20.90;93.20;;;;;;5034161;28;20460;-70
2022/05/05 08:09:19;;;;;;;8.70;6.13;;;21.00;91.40;;;;;;5032474;28;20491;-70
2022/05/05 08:11:46;;;;;;;8.30;5.50;;;20.60;91.70;;;;;;5031695;28;20461;-69
2022/05/05 08:14:13;;;;;;;7.97;5.03;;;20.10;92.30;;;;;;5023558;28;20488;-68
2022/05/05 08:16:40;;;;;;;7.83;4.67;;;19.80;93.00;;;;;;5022203;28;20523;-68
2022/05/05 08:19:07;;;;;;;9.30;4.60;;;19.70;94.30;;;;;;5029186;28;20504;-70
2022/05/05 08:21:35;;;;;;;8.10;4.67;;;19.90;93.10;;;;;;5025393;28;20463;-70
2022/05/05 08:29:31;;;;;;;7.87;3.90;;;20.30;93.30;;;;;;5033951;28;20456;-69
2022/05/05 08:31:58;;;;;;;6.93;4.77;;;20.50;92.50;;;;;;5030448;28;20463;-69
2022/05/05 08:34:25;;;;;;;11.00;5.63;;;20.40;92.00;;;;;;5027761;28;20485;-69
2022/05/05 08:36:53;;;;;;;5.17;3.43;;;20.50;92.40;;;;;;5030847;28;20469;-70
2022/05/05 08:39:19;;;;;;;6.77;3.53;;;21.10;92.10;;;;;;5030163;28;20522;-70
2022/05/05 08:41:47;;;;;;;8.20;4.33;;;21.80;92.30;;;;;;5026330;28;20535;-69
2022/05/05 08:44:15;;;;;;;6.93;4.17;;;22.20;90.00;;;;;;5026126;28;22846;-69
2022/05/05 08:46:42;;;;;;;9.60;4.87;;;22.80;90.00;;;;;;5032570;28;20841;-69
2022/05/05 08:49:08;;;;;;;6.83;4.20;;;23.20;87.20;;;;;;5032863;28;20460;-69
2022/05/05 08:51:44;;;;;;;16.57;4.90;;;23.60;85.20;;;;;;5030808;28;20885;-70
2022/05/05 08:54:16;;;;;;;9.10;4.87;;;23.80;81.70;;;;;;5033039;28;20499;-67
2022/05/05 08:56:43;;;;;;;9.10;4.53;;;23.90;84.50;;;;;;5036087;28;20498;-67
2022/05/05 08:59:11;;;;;;;6.43;4.83;;;24.20;82.30;;;;;;5031857;28;20531;-69
2022/05/05 09:01:39;;;;;;;8.00;5.10;;;24.60;82.90;;;;;;5027875;28;20458;-69
2022/05/05 09:04:06;;;;;;;11.20;5.20;;;24.90;81.90;;;;;;5032057;28;20470;-69
2022/05/05 09:06:44;;;;;;;11.60;6.20;;;24.60;81.20;;;;;;5025499;28;20461;-70
2022/05/05 09:09:34;;;;;;;9.07;5.80;;;25.10;81.30;;;;;;5030885;28;20468;-71
2022/05/05 09:12:12;;;;;;;7.80;5.00;;;26.10;75.90;;;;;;5031406;28;20843;-70
2022/05/05 09:14:41;;;;;;;7.80;6.47;;;25.90;73.30;;;;;;5026004;28;20479;-70
2022/05/05 09:17:10;;;;;;;8.60;6.13;;;24.00;75.60;;;;;;5032681;28;20901;-69
2022/05/05 09:19:38;;;;;;;11.10;7.70;;;24.70;75.60;;;;;;5029844;28;20463;-69
2022/05/05 09:22:07;;;;;;;12.43;6.30;;;24.80;75.00;;;;;;5024891;28;20526;-70
2022/05/05 09:24:43;;;;;;;13.93;7.10;;;24.80;76.30;;;;;;5021844;28;20484;-71
2022/05/05 09:27:21;;;;;;;12.33;7.10;;;25.60;74.10;;;;;;5031335;28;20526;-70
2022/05/05 09:30:08;;;;;;;13.73;7.37;;;25.90;73.50;;;;;;5031972;28;20454;-70
2022/05/05 09:32:37;;;;;;;9.93;6.40;;;26.40;71.50;;;;;;5024858;28;20455;-70
2022/05/05 09:35:07;;;;;;;8.70;6.07;;;26.30;71.50;;;;;;5023837;28;20570;-70
2022/05/05 09:37:34;;;;;;;9.20;6.00;;;26.00;69.80;;;;;;5026275;28;20536;-69
2022/05/05 09:40:03;;;;;;;12.57;7.00;;;26.70;68.40;;;;;;5025304;28;21459;-69
2022/05/05 09:42:38;;;;;;;14.00;6.37;;;28.10;69.40;;;;;;5030896;28;20896;-70
2022/05/05 09:45:21;;;;;;;11.17;7.00;;;28.60;63.30;;;;;;5029710;28;20481;-69
2022/05/05 09:47:50;;;;;;;12.23;6.40;;;28.40;63.90;;;;;;5028882;28;20466;-70
2022/05/05 09:50:19;;;;;;;10.50;7.13;;;28.00;64.50;;;;;;5036094;28;20526;-69
2022/05/05 09:58:21;;;;;;;10.20;6.87;;;28.10;62.70;;;;;;5030743;28;20988;-70
2022/05/05 10:00:55;;;;;;;12.00;7.47;;;27.20;62.60;;;;;;5033562;28;20466;-70
2022/05/05 10:06:17;;;;;;;10.83;6.70;;;25.30;65.90;;;;;;5025056;28;20465;-69
2022/05/05 10:08:46;;;;;;;11.57;9.30;;;25.70;67.50;;;;;;5025960;28;20667;-69
2022/05/05 10:11:15;;;;;;;9.93;6.47;;;26.10;64.80;;;;;;5030426;28;20466;-70
2022/05/05 10:13:42;;;;;;;9.97;6.20;;;26.90;65.40;;;;;;5024624;28;20489;-70
2022/05/05 10:16:10;;;;;;;9.90;7.10;;;27.30;63.80;;;;;;5021985;28;20457;-68
2022/05/05 10:18:38;;;;;;;11.27;6.80;;;27.60;63.30;;;;;;5015387;28;20469;-69
2022/05/05 10:21:07;;;;;;;10.83;6.43;;;27.70;62.40;;;;;;5029876;28;20473;-70
2022/05/05 10:23:45;;;;;;;13.87;6.70;;;28.30;64.00;;;;;;5029628;28;20474;-69
2022/05/05 10:26:14;;;;;;;13.00;6.33;;;28.00;58.50;;;;;;5016108;28;21048;-69
2022/05/05 10:28:44;;;;;;;9.40;6.37;;;28.50;58.70;;;;;;5035293;28;20466;-69
2022/05/05 10:31:13;;;;;;;9.77;5.97;;;29.20;59.30;;;;;;5036320;28;20551;-70
2022/05/05 10:33:59;;;;;;;16.03;7.23;;;29.30;58.10;;;;;;5038300;28;20488;-71
2022/05/05 10:36:26;;;;;;;8.10;5.13;;;29.30;58.80;;;;;;5029111;28;20819;-70
2022/05/05 10:38:53;;;;;;;10.73;6.50;;;29.90;57.70;;;;;;5027511;28;20527;-70
2022/05/05 10:41:39;;;;;;;10.87;5.10;;;28.80;56.50;;;;;;5030200;28;20808;-70
2022/05/05 10:44:25;;;;;;;8.30;6.60;;;29.20;56.40;;;;;;5028896;28;20744;-69
2022/05/05 10:46:56;;;;;;;8.10;5.60;;;27.90;57.70;;;;;;5035475;28;21009;-69
2022/05/05 10:49:46;;;;;;;9.20;5.33;;;27.40;59.20;;;;;;5037988;28;20458;-70
2022/05/05 10:52:29;;;;;;;8.03;5.30;;;26.70;58.50;;;;;;5023229;28;21044;-69
2022/05/05 10:54:56;;;;;;;8.77;5.77;;;25.90;59.70;;;;;;5028706;28;20495;-70
2022/05/05 10:57:44;;;;;;;7.23;5.80;;;26.00;59.90;;;;;;5030922;28;20453;-69
2022/05/05 11:00:12;;;;;;;6.77;5.03;;;27.20;58.90;;;;;;5025641;28;20458;-71
2022/05/05 11:03:00;;;;;;;6.70;5.07;;;27.60;57.90;;;;;;5027596;28;20591;-71
2022/05/05 11:05:29;;;;;;;6.73;4.70;;;27.80;58.20;;;;;;5032912;28;20492;-71
2022/05/05 11:08:32;;;;;;;10.77;6.03;;;29.00;58.10;;;;;;5031211;28;20462;-70
2022/05/05 11:13:40;;;;;;;8.93;6.33;;;28.90;55.90;;;;;;5032413;28;20476;-71
2022/05/05 11:22:12;;;;;;;13.67;7.97;;;26.20;60.60;;;;;;5028436;28;20492;-70
2022/05/05 11:24:41;;;;;;;7.60;5.73;;;26.00;61.50;;;;;;5028418;28;20489;-70
2022/05/05 11:27:11;;;;;;;9.40;6.20;;;25.90;59.50;;;;;;5018348;28;20469;-70
2022/05/05 11:29:38;;;;;;;10.10;4.63;;;25.70;60.90;;;;;;5037308;28;20470;-70
2022/05/05 11:32:06;;;;;;;9.53;4.87;;;25.30;61.30;;;;;;5036278;28;20571;-70
2022/05/05 11:34:34;;;;;;;6.83;5.20;;;24.70;60.10;;;;;;5035096;28;20855;-70
2022/05/05 11:37:01;;;;;;;12.50;6.40;;;25.20;60.70;;;;;;5033300;28;20836;-70
2022/05/05 11:39:30;;;;;;;7.90;5.07;;;25.70;58.70;;;;;;5033614;28;20493;-70
2022/05/05 11:41:58;;;;;;;10.90;5.13;;;25.60;59.00;;;;;;5030522;28;20482;-70
2022/05/05 11:44:25;;;;;;;6.43;5.00;;;25.90;59.50;;;;;;5031106;28;20485;-70
2022/05/05 11:46:53;;;;;;;6.30;3.93;;;26.90;58.50;;;;;;5032895;28;20452;-71
2022/05/05 11:49:19;;;;;;;6.17;4.30;;;28.30;59.00;;;;;;5027767;28;20461;-70
2022/05/05 11:51:47;;;;;;;6.27;4.47;;;29.60;54.90;;;;;;5032526;28;20460;-71
2022/05/05 11:54:15;;;;;;;7.00;4.33;;;29.70;54.10;;;;;;5033019;28;20496;-69
2022/05/05 11:56:47;;;;;;;9.20;4.40;;;29.90;53.50;;;;;;5062266;22;20506;-72
2022/05/05 12:02:05;;;;;;;6.10;3.83;;;28.50;54.20;;;;;;5009479;28;20490;-72
2022/05/05 12:04:34;;;;;;;6.87;4.30;;;26.90;55.80;;;;;;5013913;28;20459;-71
2022/05/05 12:07:02;;;;;;;7.73;3.70;;;25.70;57.70;;;;;;5011739;28;20481;-73
2022/05/05 12:09:29;;;;;;;7.47;3.80;;;25.40;57.80;;;;;;5013192;28;20486;-73
2022/05/05 12:11:57;;;;;;;10.37;5.10;;;24.80;58.70;;;;;;5012889;28;20459;-72
2022/05/05 12:14:24;;;;;;;6.60;3.93;;;24.20;59.90;;;;;;5014576;28;20531;-72
2022/05/05 12:16:52;;;;;;;6.20;4.47;;;23.80;60.50;;;;;;5019055;28;20489;-74
2022/05/05 12:19:21;;;;;;;7.53;3.87;;;23.50;62.10;;;;;;5018868;28;20498;-73
2022/05/05 12:21:53;;;;;;;10.10;3.67;;;23.50;61.30;;;;;;5016193;28;20468;-71
2022/05/05 12:24:22;;;;;;;6.43;5.10;;;23.70;62.20;;;;;;5019142;28;20489;-71
2022/05/05 12:26:49;;;;;;;4.20;3.80;;;23.90;61.80;;;;;;5011789;28;20486;-72
2022/05/05 12:29:19;;;;;;;6.37;4.10;;;24.00;61.70;;;;;;5018337;28;20462;-72
2022/05/05 12:31:54;;;;;;;4.40;3.33;;;23.80;62.80;;;;;;5016323;28;20466;-71
2022/05/05 12:34:25;;;;;;;5.03;3.80;;;23.60;63.50;;;;;;5004805;28;20474;-72
2022/05/05 12:37:07;;;;;;;8.40;4.67;;;23.90;62.00;;;;;;5014068;28;20510;-72
2022/05/05 12:39:34;;;;;;;7.23;4.80;;;24.80;62.50;;;;;;5009224;28;20473;-71
2022/05/05 12:42:01;;;;;;;5.77;4.83;;;25.10;60.60;;;;;;5015951;28;20454;-72
2022/05/05 12:44:33;;;;;;;13.70;4.23;;;25.70;60.40;;;;;;5017340;28;20458;-73
2022/05/05 12:47:03;;;;;;;6.10;3.97;;;26.40;58.50;;;;;;5015041;28;20497;-72
2022/05/05 12:49:37;;;;;;;3.90;3.50;;;26.70;58.30;;;;;;5009985;28;20652;-72
2022/05/05 12:52:05;;;;;;;10.90;3.97;;;26.50;57.00;;;;;;5012015;28;20459;-72
2022/05/05 13:00:15;;;;;;;8.03;4.43;;;28.20;55.80;;;;;;5010778;28;20471;-72
2022/05/05 13:02:42;;;;;;;7.30;4.43;;;28.80;54.20;;;;;;4999662;28;20863;-73
2022/05/05 13:05:10;;;;;;;5.80;4.27;;;28.90;54.00;;;;;;5003229;28;20524;-72
2022/05/05 13:07:37;;;;;;;6.77;3.80;;;28.50;54.70;;;;;;5006912;28;20544;-72
2022/05/05 13:10:04;;;;;;;6.27;3.53;;;27.50;55.40;;;;;;4998183;28;20538;-73
2022/05/05 13:12:30;;;;;;;4.87;3.53;;;26.50;55.40;;;;;;5016998;28;22058;-72
2022/05/05 13:14:57;;;;;;;8.53;4.47;;;25.20;55.90;;;;;;5009320;28;20451;-71
2022/05/05 13:17:25;;;;;;;8.50;3.60;;;24.80;58.50;;;;;;5011291;28;20492;-71
2022/05/05 13:19:52;;;;;;;7.47;4.77;;;23.90;59.70;;;;;;5013394;28;20458;-72
2022/05/05 13:22:19;;;;;;;9.20;5.17;;;23.50;61.90;;;;;;5016896;28;20465;-73
2022/05/05 13:24:45;;;;;;;7.50;3.90;;;23.30;60.20;;;;;;5013712;28;20569;-73
2022/05/05 13:27:12;;;;;;;5.50;4.27;;;23.50;63.20;;;;;;5013468;28;20836;-72
2022/05/05 13:29:40;;;;;;;7.57;3.57;;;24.50;59.60;;;;;;5015866;28;20459;-73
2022/05/05 13:32:08;;;;;;;5.30;3.50;;;24.70;60.40;;;;;;5016266;28;21222;-71
2022/05/05 13:34:36;;;;;;;4.27;3.87;;;24.90;60.00;;;;;;5018500;28;20512;-73
2022/05/05 13:37:03;;;;;;;7.70;4.00;;;26.30;58.00;;;;;;5017945;28;20478;-73
2022/05/05 13:39:29;;;;;;;6.10;3.30;;;27.20;58.10;;;;;;5007728;28;20462;-73
2022/05/05 13:41:56;;;;;;;6.30;3.97;;;27.90;55.30;;;;;;5019268;28;20455;-73